Terminal Aerodrome Forecast
Issued by NWS Twin Cities, MN

Home | Current Version | Previous Version | Text Only | Print | Product List | Glossary On
Versions: 1 2 3 4 5 6 7 8 9 10 11 12 13 14 15 16 17 18
799
FTUS43 KMPX 070538
TAFSTC
TAF
KSTC 070538Z 0706/0806 22013KT P6SM VCSH OVC070
     FM070900 26015G22KT P6SM SCT025 OVC040
     FM071600 28016G23KT P6SM OVC030
     FM072000 29020G32KT 2SM -SHSN BLSN OVC015=

USA.gov is the U.S. government's official web portal to all federal, state and local government web resources and services.